Bangor, California
Current Conditions -  °F | °C
As of 8:53 PM on Thursday 30 Oct 2014 (Local Time) from KOVE Reporting Station
Clear Clear  
Wind Chill: 72°   Ceiling: Unl
Heat Index: 72°   Visibility: 10mi
Dew Point: 45°   Wind: 12mph
Humidity: 38%   Direction: 150°SSE
Pressure: 29.83"   Gusts: NA
Location:  39.39°N, 121.4°W
Report Text: KOVE 310353Z AUTO 15010KT 10SM CLR 22/07 A2983 RMK AO2 SLP103 T02220072
Loading
Personal Weather Stations






























Interactive Weather Map
Tropical Storm Tracking
New forecast layout! Learn more

10-Day Weather Forecast

Advertisements
Track Severe Weather on mobile